createdAt,value
2023-12-02T00:02:36.758Z,1009.92
2023-12-02T00:06:36.404Z,1009.74
2023-12-02T00:10:36.643Z,1010.02
2023-12-02T00:14:35.984Z,1010.01
2023-12-02T00:18:36.964Z,1009.99
2023-12-02T00:22:36.463Z,1009.91
2023-12-02T00:26:36.620Z,1010.02
2023-12-02T00:30:36.322Z,1010.12
2023-12-02T00:34:36.702Z,1010.11
2023-12-02T00:38:36.736Z,1010.02
2023-12-02T00:42:36.139Z,1010.04
2023-12-02T00:46:36.237Z,1010.11
2023-12-02T00:50:36.787Z,1010.09
2023-12-02T00:54:38.725Z,1010.09
2023-12-02T00:58:41.689Z,1009.99
2023-12-02T01:02:36.403Z,1010.05
2023-12-02T01:06:36.988Z,1010.01
2023-12-02T01:10:36.152Z,1009.94
2023-12-02T01:14:36.286Z,1009.87
2023-12-02T01:18:37.005Z,1010
2023-12-02T01:22:36.754Z,1009.86
2023-12-02T01:26:36.133Z,1009.91
2023-12-02T01:30:37.014Z,1009.92
2023-12-02T01:34:36.257Z,1009.87
2023-12-02T01:38:36.147Z,1009.94
2023-12-02T01:42:36.606Z,1009.87
2023-12-02T01:46:36.658Z,1009.88
2023-12-02T01:50:36.816Z,1009.9
2023-12-02T01:54:36.785Z,1009.78
2023-12-02T01:58:36.840Z,1009.97
2023-12-02T02:02:36.319Z,1009.83
2023-12-02T02:06:36.794Z,1009.81
2023-12-02T02:10:36.319Z,1009.81
2023-12-02T02:14:36.364Z,1009.91
2023-12-02T02:18:37.050Z,1009.95
2023-12-02T02:22:35.999Z,1009.87
2023-12-02T02:26:36.202Z,1009.84
2023-12-02T02:30:36.876Z,1009.89
2023-12-02T02:34:36.923Z,1009.79
2023-12-02T02:38:35.959Z,1009.89
2023-12-02T02:42:36.406Z,1009.91
2023-12-02T02:46:36.342Z,1010
2023-12-02T02:50:36.734Z,1010.05
2023-12-02T02:54:36.938Z,1010.07
2023-12-02T02:58:35.965Z,1010
2023-12-02T03:02:36.226Z,1010.11
2023-12-02T03:06:36.946Z,1010.14
2023-12-02T03:10:36.824Z,1010.12
2023-12-02T03:14:36.823Z,1010.11
2023-12-02T03:18:36.723Z,1010.11
2023-12-02T03:22:36.202Z,1010.07
2023-12-02T03:26:36.313Z,1010.15
2023-12-02T03:30:37.268Z,1010.1
2023-12-02T03:34:36.445Z,1009.95
2023-12-02T03:38:36.348Z,1009.98
2023-12-02T03:42:36.627Z,1010.04
2023-12-02T03:46:36.604Z,1010.01
2023-12-02T03:50:40.766Z,1009.94
2023-12-02T03:54:36.392Z,1009.98
2023-12-02T03:58:36.502Z,1010.04
2023-12-02T04:02:36.209Z,1009.99
2023-12-02T04:06:36.558Z,1010.14
2023-12-02T04:10:36.546Z,1010.08
2023-12-02T04:14:36.647Z,1010.27
2023-12-02T04:18:36.535Z,1010.18
2023-12-02T04:22:35.907Z,1010.31
2023-12-02T04:26:35.915Z,1010.31
2023-12-02T04:30:36.802Z,1010.27
2023-12-02T04:34:37.348Z,1010.3
2023-12-02T04:38:35.926Z,1010.32
2023-12-02T04:42:36.554Z,1010.29
2023-12-02T04:46:36.343Z,1010.37
2023-12-02T04:50:36.919Z,1010.43
2023-12-02T04:54:36.594Z,1010.46
2023-12-02T04:58:36.865Z,1010.52
2023-12-02T05:02:36.140Z,1010.51
2023-12-02T05:06:37.108Z,1010.47
2023-12-02T05:10:37.130Z,1010.58
2023-12-02T05:14:36.172Z,1010.57
2023-12-02T05:18:37.251Z,1010.76
2023-12-02T05:22:36.689Z,1010.71
2023-12-02T05:26:36.171Z,1010.72
2023-12-02T05:30:37.348Z,1010.81
2023-12-02T05:34:36.346Z,1010.8
2023-12-02T05:38:36.265Z,1010.74
2023-12-02T05:42:36.967Z,1010.83
2023-12-02T05:46:35.977Z,1010.76
2023-12-02T05:50:36.533Z,1010.83
2023-12-02T05:54:36.111Z,1010.82
2023-12-02T05:58:35.956Z,1010.78
2023-12-02T06:02:36.613Z,1010.88
2023-12-02T06:06:37.064Z,1010.93
2023-12-02T06:10:36.303Z,1011.05
2023-12-02T06:14:36.555Z,1011
2023-12-02T06:18:37.431Z,1011.04
2023-12-02T06:22:35.889Z,1011.16
2023-12-02T06:26:36.029Z,1011.09
2023-12-02T06:30:38.071Z,1011.19
2023-12-02T06:34:37.011Z,1011.08
2023-12-02T06:38:36.150Z,1011.16
2023-12-02T06:42:36.644Z,1011.23
2023-12-02T06:46:36.619Z,1011.14
2023-12-02T06:50:37.039Z,1011.24
2023-12-02T06:54:36.409Z,1011.25
2023-12-02T06:58:36.591Z,1011.26
2023-12-02T07:02:36.049Z,1011.32
2023-12-02T07:06:36.901Z,1011.38
2023-12-02T07:10:37.033Z,1011.41
2023-12-02T07:14:36.283Z,1011.4
2023-12-02T07:18:36.937Z,1011.66
2023-12-02T07:22:36.725Z,1011.8
2023-12-02T07:26:35.961Z,1011.73
2023-12-02T07:30:42.352Z,1011.77
2023-12-02T07:34:36.654Z,1011.82
2023-12-02T07:38:36.970Z,1011.85
2023-12-02T07:42:36.213Z,1011.97
2023-12-02T07:46:36.595Z,1011.88
2023-12-02T07:50:37.074Z,1011.98
2023-12-02T07:54:35.826Z,1012.08
2023-12-02T07:58:36.304Z,1012
2023-12-02T08:02:36.596Z,1012.08
2023-12-02T08:06:36.446Z,1012.15
2023-12-02T08:10:36.719Z,1012.21
2023-12-02T08:14:36.716Z,1012.23
2023-12-02T08:18:36.884Z,1012.3
2023-12-02T08:22:36.615Z,1012.33
2023-12-02T08:26:36.640Z,1012.29
2023-12-02T08:30:36.493Z,1012.36
2023-12-02T08:34:39.653Z,1012.52
2023-12-02T08:38:37.421Z,1012.31
2023-12-02T08:42:36.214Z,1012.4
2023-12-02T08:46:36.528Z,1012.5
2023-12-02T08:50:37.166Z,1012.52
2023-12-02T08:54:36.018Z,1012.45
2023-12-02T08:58:36.368Z,1012.59
2023-12-02T09:02:36.714Z,1012.61
2023-12-02T09:06:39.083Z,1012.65
2023-12-02T09:10:37.092Z,1012.63
2023-12-02T09:14:36.176Z,1012.67
2023-12-02T09:18:36.867Z,1012.77
2023-12-02T09:22:36.424Z,1012.71
2023-12-02T09:26:36.910Z,1012.83
2023-12-02T09:30:36.766Z,1012.86
2023-12-02T09:34:36.246Z,1012.78
2023-12-02T09:38:36.741Z,1012.79
2023-12-02T09:42:35.880Z,1012.76
2023-12-02T09:46:36.193Z,1012.94
2023-12-02T09:50:36.979Z,1012.87
2023-12-02T09:54:36.698Z,1012.96
2023-12-02T09:58:36.863Z,1013
2023-12-02T10:02:36.901Z,1013.02
2023-12-02T10:06:36.763Z,1013.04
2023-12-02T10:10:36.373Z,1013
2023-12-02T10:14:36.905Z,1013.02
2023-12-02T10:18:36.533Z,1013.06
2023-12-02T10:22:36.410Z,1012.97
2023-12-02T10:26:36.743Z,1012.96
2023-12-02T10:30:36.813Z,1012.93
2023-12-02T10:34:37.099Z,1012.95
2023-12-02T10:38:35.992Z,1012.93
2023-12-02T10:42:36.026Z,1012.85
2023-12-02T10:46:36.578Z,1012.98
2023-12-02T10:50:36.719Z,1012.93
2023-12-02T10:54:36.869Z,1012.99
2023-12-02T10:58:36.229Z,1012.92
2023-12-02T11:02:36.620Z,1012.94
2023-12-02T11:06:37.386Z,1012.84
2023-12-02T11:10:36.210Z,1012.89
2023-12-02T11:14:36.391Z,1012.82
2023-12-02T11:18:37.209Z,1012.83
2023-12-02T11:22:35.971Z,1012.79
2023-12-02T11:26:36.187Z,1012.74
2023-12-02T11:30:36.934Z,1012.77
2023-12-02T11:34:37.358Z,1012.75
2023-12-02T11:38:36.038Z,1012.9
2023-12-02T11:42:36.542Z,1012.82
2023-12-02T11:46:36.534Z,1012.88
2023-12-02T11:50:36.886Z,1012.82
2023-12-02T11:54:37.162Z,1012.73
2023-12-02T11:58:35.983Z,1012.96
2023-12-02T12:02:36.827Z,1012.86
2023-12-02T12:06:36.689Z,1013.02
2023-12-02T12:10:36.558Z,1012.99
2023-12-02T12:14:36.475Z,1012.94
2023-12-02T12:18:37.144Z,1013.05
2023-12-02T12:22:35.979Z,1013.02
2023-12-02T12:26:36.059Z,1013
2023-12-02T12:30:36.788Z,1012.91
2023-12-02T12:34:37.449Z,1012.85
2023-12-02T12:38:36.801Z,1012.86
2023-12-02T12:42:36.413Z,1012.96
2023-12-02T12:46:36.363Z,1012.98
2023-12-02T12:50:37.120Z,1012.97
2023-12-02T12:54:37.198Z,1013.15
2023-12-02T12:58:36.135Z,1013.21
2023-12-02T13:02:36.780Z,1013.15
2023-12-02T13:06:37.315Z,1013.28
2023-12-02T13:10:36.559Z,1013.31
2023-12-02T13:14:36.469Z,1013.19
2023-12-02T13:18:37.088Z,1013.26
2023-12-02T13:22:36.300Z,1013.32
2023-12-02T13:26:40.689Z,1013.34
2023-12-02T13:30:36.803Z,1013.35
2023-12-02T13:34:37.453Z,1013.38
2023-12-02T13:38:36.043Z,1013.31
2023-12-02T13:42:36.412Z,1013.27
2023-12-02T13:46:36.409Z,1013.39
2023-12-02T13:50:36.972Z,1013.46
2023-12-02T13:54:36.984Z,1013.4
2023-12-02T13:58:37.216Z,1013.53
2023-12-02T14:02:36.007Z,1013.52
2023-12-02T14:06:36.509Z,1013.58
2023-12-02T14:10:36.861Z,1013.55
2023-12-02T14:14:35.969Z,1013.54
2023-12-02T14:18:36.725Z,1013.57
2023-12-02T14:22:36.554Z,1013.59
2023-12-02T14:26:36.599Z,1013.63
2023-12-02T14:30:37.351Z,1013.64
2023-12-02T14:34:36.619Z,1013.73
2023-12-02T14:38:36.277Z,1013.66
2023-12-02T14:42:36.662Z,1013.8
2023-12-02T14:46:36.891Z,1013.83
2023-12-02T14:50:36.576Z,1013.88
2023-12-02T14:54:38.077Z,1013.96
2023-12-02T14:58:36.444Z,1013.97
2023-12-02T15:02:36.916Z,1014.06
2023-12-02T15:06:36.760Z,1014.05
2023-12-02T15:10:53.935Z,1014.2
2023-12-02T15:14:36.285Z,1014.31
2023-12-02T15:18:37.139Z,1014.33
2023-12-02T15:22:38.441Z,1014.34
2023-12-02T15:26:36.798Z,1014.4
2023-12-02T15:30:36.534Z,1014.54
2023-12-02T15:34:37.666Z,1014.53
2023-12-02T15:38:36.876Z,1014.54
2023-12-02T15:42:36.648Z,1014.54
2023-12-02T15:46:36.768Z,1014.67
2023-12-02T15:50:36.307Z,1014.65
2023-12-02T15:54:36.870Z,1014.64
2023-12-02T15:58:37.780Z,1014.68
2023-12-02T16:02:36.542Z,1014.84
2023-12-02T16:06:37.524Z,1014.85
2023-12-02T16:10:36.262Z,1014.84
2023-12-02T16:14:36.398Z,1014.95
2023-12-02T16:18:36.973Z,1014.92
2023-12-02T16:22:36.657Z,1015.01
2023-12-02T16:26:36.569Z,1014.98
2023-12-02T16:30:37.160Z,1014.95
2023-12-02T16:34:37.234Z,1015.04
2023-12-02T16:38:35.846Z,1015.06
2023-12-02T16:42:36.232Z,1015.14
2023-12-02T16:46:42.228Z,1015.13
2023-12-02T16:50:36.762Z,1015.26
2023-12-02T16:54:36.429Z,1015.39
2023-12-02T16:58:40.571Z,1015.41
2023-12-02T17:02:36.760Z,1015.45
2023-12-02T17:06:37.063Z,1015.55
2023-12-02T17:10:36.199Z,1015.53
2023-12-02T17:14:36.369Z,1015.55
2023-12-02T17:18:37.314Z,1015.72
2023-12-02T17:22:36.084Z,1015.86
2023-12-02T17:26:36.424Z,1015.84
2023-12-02T17:30:37.483Z,1015.87
2023-12-02T17:34:36.281Z,1015.9
2023-12-02T17:38:36.297Z,1015.91
2023-12-02T17:42:39.371Z,1015.91
2023-12-02T17:46:36.891Z,1015.9
2023-12-02T17:50:36.443Z,1015.98
2023-12-02T17:54:36.828Z,1015.92
2023-12-02T17:58:36.702Z,1015.99
2023-12-02T18:02:36.603Z,1015.97
2023-12-02T18:06:37.085Z,1015.99
2023-12-02T18:10:37.127Z,1015.94
2023-12-02T18:14:36.194Z,1015.94
2023-12-02T18:18:37.116Z,1015.86
2023-12-02T18:22:36.052Z,1015.89
2023-12-02T18:26:36.249Z,1015.91
2023-12-02T18:30:37.529Z,1015.9
2023-12-02T18:34:36.323Z,1015.97
2023-12-02T18:38:36.158Z,1015.95
2023-12-02T18:42:36.559Z,1015.91
2023-12-02T18:46:36.563Z,1015.9
2023-12-02T18:50:37.126Z,1015.92
2023-12-02T18:54:36.767Z,1015.95
2023-12-02T18:58:36.570Z,1016.07
2023-12-02T19:02:36.045Z,1016.04
2023-12-02T19:06:36.409Z,1016.06
2023-12-02T19:10:36.649Z,1016.18
2023-12-02T19:14:36.838Z,1016.14
2023-12-02T19:18:36.337Z,1016.17
2023-12-02T19:22:36.174Z,1016.13
2023-12-02T19:26:36.281Z,1016.13
2023-12-02T19:30:37.382Z,1016.17
2023-12-02T19:34:36.724Z,1016.17
2023-12-02T19:38:36.664Z,1016.1
2023-12-02T19:42:37.280Z,1016.24
2023-12-02T19:46:39.012Z,1016.2
2023-12-02T19:50:36.248Z,1016.33
2023-12-02T19:54:36.577Z,1016.24
2023-12-02T19:58:36.955Z,1016.39
2023-12-02T20:02:36.419Z,1016.37
2023-12-02T20:06:37.167Z,1016.48
2023-12-02T20:10:36.998Z,1016.39
2023-12-02T20:14:36.226Z,1016.45
2023-12-02T20:18:36.890Z,1016.43
2023-12-02T20:22:36.814Z,1016.38
2023-12-02T20:26:36.341Z,1016.45
2023-12-02T20:30:36.980Z,1016.37
2023-12-02T20:34:37.271Z,1016.41
2023-12-02T20:38:36.891Z,1016.52
2023-12-02T20:42:36.476Z,1016.44
2023-12-02T20:46:36.596Z,1016.41
2023-12-02T20:50:36.228Z,1016.5
2023-12-02T20:54:36.625Z,1016.44
2023-12-02T20:58:36.867Z,1016.5
2023-12-02T21:02:36.370Z,1016.38
2023-12-02T21:06:36.686Z,1016.41
2023-12-02T21:10:36.606Z,1016.51
2023-12-02T21:14:36.590Z,1016.51
2023-12-02T21:18:37.634Z,1016.55
2023-12-02T21:22:36.198Z,1016.55
2023-12-02T21:26:36.314Z,1016.49
2023-12-02T21:30:36.920Z,1016.56
2023-12-02T21:34:37.536Z,1016.62
2023-12-02T21:38:36.392Z,1016.54
2023-12-02T21:42:37.362Z,1016.6
2023-12-02T21:46:36.292Z,1016.49
2023-12-02T21:50:36.800Z,1016.69
2023-12-02T21:54:36.912Z,1016.64
2023-12-02T21:58:35.994Z,1016.59
2023-12-02T22:02:36.903Z,1016.75
2023-12-02T22:06:36.884Z,1016.78
2023-12-02T22:10:37.081Z,1016.7
2023-12-02T22:14:36.258Z,1016.69
2023-12-02T22:18:36.783Z,1016.74
2023-12-02T22:22:36.743Z,1016.72
2023-12-02T22:26:36.217Z,1016.72
2023-12-02T22:30:36.969Z,1016.82
2023-12-02T22:34:37.642Z,1016.68
2023-12-02T22:38:36.835Z,1016.81
2023-12-02T22:42:36.430Z,1016.87
2023-12-02T22:46:36.592Z,1017.01
2023-12-02T22:50:36.478Z,1017.14
2023-12-02T22:54:36.606Z,1017.05
2023-12-02T22:58:36.940Z,1017.15
2023-12-02T23:02:36.941Z,1017.24
2023-12-02T23:06:36.194Z,1017.2
2023-12-02T23:10:37.336Z,1017.27
2023-12-02T23:14:37.073Z,1017.28
2023-12-02T23:18:37.603Z,1017.11
2023-12-02T23:22:36.627Z,1017.24
2023-12-02T23:26:40.341Z,1017.09
2023-12-02T23:30:36.594Z,1017.26
2023-12-02T23:34:37.314Z,1017.26
2023-12-02T23:38:35.998Z,1017.27
2023-12-02T23:42:36.140Z,1017.26
2023-12-02T23:46:36.424Z,1017.36
2023-12-02T23:50:37.340Z,1017.26
2023-12-02T23:54:37.169Z,1017.28
2023-12-02T23:58:36.358Z,1017.26
